National Weather Service Raw Text Product

Displaying AFOS PIL: TAFALO Received: 2018-07-12 05:20 UTC


476 
FTUS43 KDMX 120520
TAFALO
TAF
KALO 120520Z 1206/1306 15011KT P6SM SCT200
     FM121400 18008KT P6SM SCT200
     FM121900 20011G17KT P6SM SCT040 SCT070
     FM122300 20010KT P6SM SCT040 SCT070=